createdAt,value
2023-03-03T00:12:25.475Z,12.47
2023-03-03T00:27:26.138Z,9.4
2023-03-03T00:42:25.924Z,11.18
2023-03-03T00:57:25.770Z,10.56
2023-03-03T01:12:25.603Z,9.32
2023-03-03T01:27:25.672Z,9.71
2023-03-03T01:42:25.697Z,9.5
2023-03-03T01:57:25.836Z,7.95
2023-03-03T02:12:26.052Z,9.84
2023-03-03T02:27:25.328Z,10.06
2023-03-03T02:42:25.228Z,9.97
2023-03-03T02:57:25.412Z,9.22
2023-03-03T03:12:25.836Z,10.25
2023-03-03T03:27:25.840Z,8.87
2023-03-03T03:42:25.775Z,7.1
2023-03-03T03:57:26.727Z,7.27
2023-03-03T04:12:25.926Z,7.36
2023-03-03T04:27:25.870Z,5.29
2023-03-03T04:42:25.520Z,5.11
2023-03-03T04:57:25.658Z,7.83
2023-03-03T05:12:25.442Z,7.49
2023-03-03T05:27:25.740Z,7.19
2023-03-03T05:42:26.069Z,10.5
2023-03-03T05:57:25.523Z,8.13
2023-03-03T06:12:25.425Z,7.99
2023-03-03T06:27:25.784Z,7.49
2023-03-03T06:42:25.731Z,9.77
2023-03-03T06:57:25.919Z,11.58
2023-03-03T07:12:25.638Z,8.24
2023-03-03T07:27:25.994Z,9.3
2023-03-03T07:42:25.681Z,13.2
2023-03-03T07:57:25.736Z,11.94
2023-03-03T08:12:25.640Z,8.29
2023-03-03T08:27:25.210Z,9.81
2023-03-03T08:42:25.885Z,9.49
2023-03-03T08:57:25.316Z,10.73
2023-03-03T09:12:25.216Z,7.59
2023-03-03T09:27:25.948Z,13.16
2023-03-03T09:42:25.736Z,11.6
2023-03-03T09:57:25.579Z,10.39
2023-03-03T10:12:25.401Z,9.69
2023-03-03T10:27:26.350Z,9.03
2023-03-03T10:42:25.577Z,12.75
2023-03-03T10:57:26.111Z,15.03
2023-03-03T11:12:25.606Z,11.43
2023-03-03T11:27:25.662Z,8.22
2023-03-03T11:42:26.121Z,8.51
2023-03-03T11:57:25.975Z,10.88
2023-03-03T12:12:25.413Z,14.5
2023-03-03T12:27:25.856Z,16.83
2023-03-03T12:42:25.833Z,19.03
2023-03-03T12:57:25.882Z,20.9
2023-03-03T13:12:25.487Z,22.76
2023-03-03T13:27:25.228Z,22.83
2023-03-03T13:42:25.364Z,23.72
2023-03-03T13:57:25.871Z,23.39
2023-03-03T14:12:25.192Z,23.5
2023-03-03T14:27:25.454Z,24.46
2023-03-03T14:42:26.965Z,26.01
2023-03-03T14:57:25.272Z,25.01
2023-03-03T15:12:25.358Z,27.34
2023-03-03T15:27:26.125Z,26.88
2023-03-03T15:42:25.694Z,27.34
2023-03-03T15:57:25.574Z,27.01
2023-03-03T16:12:25.458Z,31.03
2023-03-03T16:27:25.636Z,29.68
2023-03-03T16:42:25.287Z,28.43
2023-03-03T16:57:25.372Z,28.07
2023-03-03T17:12:25.588Z,28.31
2023-03-03T17:27:25.953Z,30.46
2023-03-03T17:42:25.275Z,30.14
2023-03-03T17:57:26.032Z,28.79
2023-03-03T18:12:25.637Z,31.47
2023-03-03T18:27:25.592Z,31.91
2023-03-03T18:42:25.800Z,29.9
2023-03-03T18:57:26.104Z,36.17
2023-03-03T19:12:25.430Z,35.93
2023-03-03T19:27:26.063Z,28.27
2023-03-03T19:42:25.540Z,26.43
2023-03-03T19:57:26.002Z,26.52
2023-03-03T20:12:25.279Z,27.9
2023-03-03T20:27:25.550Z,27.29
2023-03-03T20:42:25.999Z,28.56
2023-03-03T20:57:25.875Z,27.83
2023-03-03T21:12:25.720Z,27.55
2023-03-03T21:27:26.250Z,27.96
2023-03-03T21:42:25.573Z,30.88
2023-03-03T21:57:25.867Z,26.55
2023-03-03T22:12:26.096Z,26.41
2023-03-03T22:27:25.362Z,21.89
2023-03-03T22:42:25.492Z,21.02
2023-03-03T22:57:26.050Z,18.73
2023-03-03T23:12:25.404Z,19.07
2023-03-03T23:27:26.066Z,22.1
2023-03-03T23:42:25.330Z,23.8
2023-03-03T23:57:25.265Z,21.59
